Time;durP1;ratioP1;P1;durP2;ratioP2;P2;SDS_P1;SDS_P2;PMS_P1;PMS_P2;Temp;Humidity;BMP_temperature;BMP_pressure;BME280_temperature;BME280_humidity;BME280_pressure;Samples;Min_cycle;Max_cycle;Signal;HPM_P1;HPM_P2
2023/12/10 00:00:31;;;;;;;43.72;6.40;;;10.70;99.90;;;;;;4952827;28;91892;-73
2023/12/10 00:02:57;;;;;;;33.42;5.55;;;10.70;99.90;;;;;;4952201;28;88208;-74
2023/12/10 00:05:23;;;;;;;38.95;5.53;;;10.70;99.90;;;;;;4968956;28;88083;-74
2023/12/10 00:07:48;;;;;;;33.85;5.63;;;10.70;99.90;;;;;;4970499;28;88290;-74
2023/12/10 00:10:14;;;;;;;38.22;4.72;;;10.70;99.90;;;;;;4973905;28;87952;-74
2023/12/10 00:12:40;;;;;;;32.67;4.90;;;10.70;99.90;;;;;;4974429;28;87708;-74
2023/12/10 00:15:06;;;;;;;38.35;5.63;;;10.70;99.90;;;;;;4957668;28;89135;-75
2023/12/10 00:17:32;;;;;;;39.63;5.90;;;10.70;99.90;;;;;;4956364;28;92119;-77
2023/12/10 00:19:57;;;;;;;32.78;4.97;;;10.70;99.90;;;;;;4955370;28;91273;-74
2023/12/10 00:22:23;;;;;;;30.42;4.15;;;10.70;99.90;;;;;;4973820;28;87125;-74
2023/12/10 00:24:49;;;;;;;38.83;4.30;;;10.80;99.90;;;;;;4955068;28;88464;-74
2023/12/10 00:27:14;;;;;;;38.83;5.82;;;10.80;99.90;;;;;;4954613;28;91701;-75
2023/12/10 00:29:40;;;;;;;40.88;5.03;;;10.80;99.90;;;;;;4955479;28;91714;-74
2023/12/10 00:32:06;;;;;;;34.85;4.70;;;10.80;99.90;;;;;;4956212;28;88259;-75
2023/12/10 00:34:32;;;;;;;31.27;4.72;;;10.80;99.90;;;;;;4954262;28;88861;-74
2023/12/10 00:36:58;;;;;;;28.30;3.50;;;10.80;99.90;;;;;;4970783;28;88354;-73
2023/12/10 00:39:23;;;;;;;30.98;4.93;;;10.80;99.90;;;;;;4972885;28;87915;-74
2023/12/10 00:41:49;;;;;;;33.92;4.90;;;10.80;99.90;;;;;;4972749;28;88078;-76
2023/12/10 00:44:14;;;;;;;33.30;4.47;;;10.80;99.90;;;;;;4970747;28;86944;-75
2023/12/10 00:46:40;;;;;;;31.45;3.88;;;10.70;99.90;;;;;;4971788;28;88307;-75
2023/12/10 00:49:06;;;;;;;34.00;4.20;;;10.70;99.90;;;;;;4957116;28;90515;-74
2023/12/10 00:51:33;;;;;;;21.90;4.15;;;10.80;99.90;;;;;;4975397;28;88682;-75
2023/12/10 00:53:58;;;;;;;44.85;5.43;;;10.80;99.90;;;;;;4973444;28;87253;-75
2023/12/10 00:56:24;;;;;;;34.80;5.10;;;10.80;99.90;;;;;;4955648;28;91151;-74
2023/12/10 00:58:50;;;;;;;32.05;3.95;;;10.80;99.90;;;;;;4955900;28;91646;-75
2023/12/10 01:01:15;;;;;;;24.30;3.22;;;10.80;99.90;;;;;;4971372;28;87566;-74
2023/12/10 01:03:41;;;;;;;28.65;4.05;;;10.90;99.90;;;;;;4952809;28;88692;-74
2023/12/10 01:06:08;;;;;;;29.00;3.78;;;10.90;99.90;;;;;;4950986;28;91691;-74
2023/12/10 01:08:33;;;;;;;23.20;3.22;;;11.00;99.90;;;;;;4967915;28;88130;-76
2023/12/10 01:10:59;;;;;;;30.33;4.00;;;11.00;99.90;;;;;;4967483;28;87851;-74
2023/12/10 01:13:25;;;;;;;32.85;4.70;;;11.10;99.90;;;;;;4950073;28;90378;-74
2023/12/10 01:15:55;;;;;;;26.60;4.18;;;11.10;99.90;;;;;;4967552;28;88657;-75
2023/12/10 01:18:21;;;;;;;26.40;4.50;;;11.10;99.90;;;;;;4969377;28;88369;-74
2023/12/10 01:20:47;;;;;;;25.13;3.25;;;11.10;99.90;;;;;;4967779;28;87629;-73
2023/12/10 01:23:14;;;;;;;25.40;4.25;;;11.10;99.90;;;;;;4968742;28;87065;-74
2023/12/10 01:25:40;;;;;;;27.17;3.88;;;11.10;99.90;;;;;;4950393;28;91817;-74
2023/12/10 01:28:07;;;;;;;25.58;2.88;;;11.00;99.90;;;;;;4949925;28;91150;-73
2023/12/10 01:30:32;;;;;;;24.90;3.80;;;11.00;99.90;;;;;;4949372;28;87772;-74
2023/12/10 01:32:58;;;;;;;26.17;3.80;;;11.00;99.90;;;;;;4968970;28;87438;-74
2023/12/10 01:35:25;;;;;;;22.48;3.72;;;11.00;99.90;;;;;;4950542;28;92385;-74
2023/12/10 01:37:51;;;;;;;29.23;3.50;;;11.00;99.90;;;;;;4965941;28;91321;-74
2023/12/10 01:40:17;;;;;;;27.48;3.00;;;11.10;99.90;;;;;;4948300;28;88801;-74
2023/12/10 01:42:49;;;;;;;22.55;3.25;;;11.00;99.90;;;;;;4967089;28;94763;-74
2023/12/10 01:45:15;;;;;;;31.88;3.33;;;11.00;99.90;;;;;;4968764;28;89224;-74
2023/12/10 01:47:43;;;;;;;23.30;4.18;;;11.00;99.90;;;;;;4950169;28;90073;-73
2023/12/10 01:50:12;;;;;;;20.50;2.67;;;10.90;99.90;;;;;;4950090;28;87402;-74
2023/12/10 01:52:47;;;;;;;23.38;3.38;;;10.90;99.90;;;;;;4968388;28;87873;-74
2023/12/10 01:55:13;;;;;;;25.73;2.90;;;10.90;99.90;;;;;;4948771;28;91544;-74
2023/12/10 01:57:39;;;;;;;24.52;3.03;;;10.90;99.90;;;;;;4967330;28;88427;-74
2023/12/10 02:00:06;;;;;;;21.42;3.75;;;10.90;99.90;;;;;;4951172;28;87479;-74
2023/12/10 02:02:35;;;;;;;17.80;2.80;;;11.00;99.90;;;;;;4950251;28;90633;-74
2023/12/10 02:05:09;;;;;;;26.15;3.97;;;11.00;99.90;;;;;;4949428;28;92700;-73
2023/12/10 02:07:35;;;;;;;27.75;4.00;;;11.00;99.90;;;;;;4969657;28;88824;-74
2023/12/10 02:10:03;;;;;;;21.15;3.42;;;11.00;99.90;;;;;;4953738;28;87593;-74
2023/12/10 02:12:30;;;;;;;21.13;3.13;;;11.00;99.90;;;;;;4970518;28;87940;-74
2023/12/10 02:14:56;;;;;;;24.92;3.00;;;11.00;99.90;;;;;;4970908;28;89026;-74
2023/12/10 02:17:22;;;;;;;28.48;4.38;;;11.10;99.90;;;;;;4970697;28;88274;-75
2023/12/10 02:19:48;;;;;;;30.67;3.53;;;11.10;99.90;;;;;;4952542;28;87647;-75
2023/12/10 02:22:17;;;;;;;25.52;3.83;;;11.00;99.90;;;;;;4951620;28;90631;-75
2023/12/10 02:24:50;;;;;;;21.88;3.42;;;11.00;99.90;;;;;;4971078;28;88160;-74
2023/12/10 02:27:16;;;;;;;31.38;3.08;;;11.00;99.90;;;;;;4970441;28;88450;-75
2023/12/10 02:29:42;;;;;;;31.20;3.70;;;11.00;99.90;;;;;;4952617;28;88668;-75
2023/12/10 02:32:08;;;;;;;21.58;3.20;;;11.00;99.90;;;;;;4952882;28;89226;-77
2023/12/10 02:34:34;;;;;;;37.90;5.50;;;11.00;99.90;;;;;;4970750;28;88853;-75
2023/12/10 02:37:00;;;;;;;28.13;3.58;;;10.90;99.90;;;;;;4951866;28;91084;-75
2023/12/10 02:39:26;;;;;;;29.85;3.53;;;10.90;99.90;;;;;;4952832;28;88173;-74
2023/12/10 02:41:52;;;;;;;32.35;3.85;;;10.80;99.90;;;;;;4970808;28;87331;-74
2023/12/10 02:44:18;;;;;;;31.58;3.97;;;10.80;99.90;;;;;;4970737;28;88515;-75
2023/12/10 02:46:50;;;;;;;28.33;4.13;;;10.90;99.90;;;;;;4971801;28;87708;-76
2023/12/10 02:49:16;;;;;;;22.13;3.22;;;10.90;99.90;;;;;;4952262;28;87762;-74
2023/12/10 02:51:41;;;;;;;20.02;4.82;;;10.80;99.90;;;;;;4970241;28;87857;-74
2023/12/10 02:54:07;;;;;;;27.10;3.30;;;10.90;99.90;;;;;;4953209;28;91888;-75
2023/12/10 02:56:33;;;;;;;27.83;3.30;;;10.90;99.90;;;;;;4970538;28;88707;-74
2023/12/10 02:58:59;;;;;;;22.63;3.35;;;10.90;99.90;;;;;;4972243;28;87973;-74
2023/12/10 03:01:24;;;;;;;26.00;3.47;;;10.90;99.90;;;;;;4970733;28;87703;-75
2023/12/10 03:03:50;;;;;;;28.63;3.22;;;11.00;99.90;;;;;;4954466;28;91299;-75
2023/12/10 03:06:16;;;;;;;31.08;3.83;;;11.00;99.90;;;;;;4975447;28;88371;-74
2023/12/10 03:08:41;;;;;;;27.95;4.05;;;11.00;99.90;;;;;;4956221;28;87254;-75
2023/12/10 03:11:07;;;;;;;29.10;4.10;;;10.90;99.90;;;;;;4955304;28;89219;-75
2023/12/10 03:13:32;;;;;;;37.55;5.10;;;11.00;99.90;;;;;;4955569;28;91857;-74
2023/12/10 03:15:58;;;;;;;31.48;4.35;;;11.00;99.90;;;;;;4973884;28;88372;-75
2023/12/10 03:18:25;;;;;;;32.25;4.45;;;11.00;99.90;;;;;;4953637;28;88611;-74
2023/12/10 03:20:51;;;;;;;36.25;5.65;;;11.00;99.90;;;;;;4973329;28;88153;-75
2023/12/10 03:23:17;;;;;;;35.03;4.28;;;11.00;99.90;;;;;;4961107;28;90800;-74
2023/12/10 03:25:43;;;;;;;31.23;4.10;;;11.10;99.90;;;;;;4938251;28;91030;-75
2023/12/10 03:28:09;;;;;;;36.75;5.00;;;11.00;99.90;;;;;;4971326;28;87475;-75
2023/12/10 03:30:35;;;;;;;30.33;3.72;;;11.00;99.90;;;;;;4951553;28;90589;-75
2023/12/10 03:33:00;;;;;;;29.15;4.15;;;11.10;99.90;;;;;;4952203;28;91156;-74
2023/12/10 03:35:26;;;;;;;39.38;4.85;;;11.10;99.90;;;;;;4970283;28;87749;-74
2023/12/10 03:37:52;;;;;;;30.42;3.13;;;11.00;99.90;;;;;;4952067;28;88080;-75
2023/12/10 03:40:18;;;;;;;34.33;4.93;;;10.80;99.90;;;;;;4952736;28;90067;-74
2023/12/10 03:42:43;;;;;;;23.45;4.22;;;10.70;99.90;;;;;;4951940;28;91242;-75
2023/12/10 03:45:09;;;;;;;31.02;3.72;;;10.70;99.90;;;;;;4952880;28;92741;-75
2023/12/10 03:47:35;;;;;;;24.27;3.25;;;10.60;99.90;;;;;;4952998;28;87628;-75
2023/12/10 03:50:02;;;;;;;35.28;4.30;;;10.60;99.90;;;;;;4970608;28;87918;-75
2023/12/10 03:52:28;;;;;;;22.60;3.72;;;10.60;99.90;;;;;;4952426;28;91289;-75
2023/12/10 03:54:53;;;;;;;26.83;3.22;;;10.60;99.90;;;;;;4970779;28;87903;-75
2023/12/10 03:57:19;;;;;;;26.38;4.35;;;10.60;99.90;;;;;;4971253;28;87405;-75
2023/12/10 03:59:44;;;;;;;25.17;4.60;;;10.60;99.90;;;;;;4969979;28;87408;-76
2023/12/10 04:02:10;;;;;;;28.17;3.47;;;10.60;99.90;;;;;;4951786;28;91760;-75
2023/12/10 04:04:36;;;;;;;27.40;3.60;;;10.60;99.90;;;;;;4967633;28;87203;-75
2023/12/10 04:07:02;;;;;;;23.98;4.65;;;10.60;99.90;;;;;;4949818;28;89086;-75
2023/12/10 04:09:28;;;;;;;28.92;3.63;;;10.60;99.90;;;;;;4950656;28;90034;-74
2023/12/10 04:11:56;;;;;;;30.63;4.65;;;10.50;99.90;;;;;;4951327;28;91892;-74
2023/12/10 04:14:22;;;;;;;32.03;4.97;;;10.40;99.90;;;;;;4949489;28;91588;-74
2023/12/10 04:16:48;;;;;;;34.67;4.30;;;10.40;99.90;;;;;;4951226;28;87544;-74
2023/12/10 04:19:13;;;;;;;21.98;3.78;;;10.40;99.90;;;;;;4961367;28;90629;-75
2023/12/10 04:21:39;;;;;;;31.95;3.65;;;10.40;99.90;;;;;;4966663;28;91754;-74
2023/12/10 04:24:05;;;;;;;23.50;3.10;;;10.40;99.90;;;;;;4951533;28;89958;-74
2023/12/10 04:26:31;;;;;;;36.08;3.65;;;10.30;99.90;;;;;;4949544;28;87956;-75
2023/12/10 04:28:56;;;;;;;34.63;4.13;;;10.40;99.90;;;;;;4968401;28;87711;-74
2023/12/10 04:31:22;;;;;;;25.08;3.70;;;10.40;99.90;;;;;;4950069;28;92582;-74
2023/12/10 04:33:48;;;;;;;28.73;3.90;;;10.40;99.90;;;;;;4969020;28;88320;-75
2023/12/10 04:36:13;;;;;;;30.38;3.47;;;10.50;99.90;;;;;;4951507;28;87948;-75
2023/12/10 04:38:39;;;;;;;41.03;5.63;;;10.40;99.90;;;;;;4950321;28;90571;-75
2023/12/10 04:41:05;;;;;;;25.88;3.30;;;10.40;99.90;;;;;;4969532;28;88035;-75
2023/12/10 04:43:31;;;;;;;32.47;3.33;;;10.50;99.90;;;;;;4969359;28;87568;-75
2023/12/10 04:45:58;;;;;;;31.27;4.50;;;10.50;99.90;;;;;;4952079;28;88240;-74
2023/12/10 04:48:24;;;;;;;31.85;4.22;;;10.50;99.90;;;;;;4950998;28;90052;-75
2023/12/10 04:50:50;;;;;;;30.52;4.70;;;10.50;99.90;;;;;;4960564;28;91899;-74
2023/12/10 04:53:15;;;;;;;31.42;4.68;;;10.40;99.90;;;;;;4965694;28;91030;-76
2023/12/10 04:55:41;;;;;;;29.48;3.80;;;10.40;99.90;;;;;;4949358;28;89337;-74
2023/12/10 04:58:07;;;;;;;35.88;4.00;;;10.50;99.90;;;;;;4949334;28;90596;-74
2023/12/10 05:00:33;;;;;;;27.88;3.42;;;10.60;99.90;;;;;;4950201;28;90550;-75
2023/12/10 05:02:59;;;;;;;28.63;4.80;;;10.70;99.90;;;;;;4968533;28;87380;-75
2023/12/10 05:05:24;;;;;;;29.17;4.10;;;10.70;99.90;;;;;;4969092;28;87396;-74
2023/12/10 05:07:50;;;;;;;26.58;3.67;;;10.80;99.90;;;;;;4950344;28;90279;-75
2023/12/10 05:10:16;;;;;;;32.28;4.05;;;10.80;99.90;;;;;;4949757;28;91985;-76
2023/12/10 05:12:41;;;;;;;28.38;3.60;;;10.80;99.90;;;;;;4967839;28;87973;-74
2023/12/10 05:15:07;;;;;;;44.75;6.13;;;10.90;99.90;;;;;;4951417;28;87937;-75
2023/12/10 05:17:33;;;;;;;33.53;4.50;;;10.80;99.90;;;;;;4949468;28;90543;-75
2023/12/10 05:19:59;;;;;;;31.08;3.28;;;10.90;99.90;;;;;;4949856;28;92125;-75
2023/12/10 05:22:24;;;;;;;37.13;5.25;;;10.90;99.90;;;;;;4949745;28;91990;-75
2023/12/10 05:24:50;;;;;;;29.50;3.83;;;10.90;99.90;;;;;;4967750;28;87803;-75
2023/12/10 05:27:16;;;;;;;30.00;3.65;;;10.90;99.90;;;;;;4949600;28;91253;-75
2023/12/10 05:29:41;;;;;;;35.85;5.20;;;10.90;99.90;;;;;;4950057;28;91713;-74
2023/12/10 05:32:07;;;;;;;36.78;3.80;;;10.90;99.90;;;;;;4968333;28;88389;-74
2023/12/10 05:34:33;;;;;;;34.17;4.65;;;10.90;99.90;;;;;;4967917;28;94147;-75
2023/12/10 05:36:58;;;;;;;35.55;3.85;;;10.90;99.90;;;;;;4967220;28;87014;-75
2023/12/10 05:39:25;;;;;;;34.28;4.07;;;10.90;99.90;;;;;;4949445;28;91501;-75
2023/12/10 05:41:50;;;;;;;21.23;3.40;;;10.80;99.90;;;;;;4950483;28;91377;-76
2023/12/10 05:44:16;;;;;;;28.05;3.92;;;10.80;99.90;;;;;;4948446;28;88634;-75
2023/12/10 05:46:42;;;;;;;28.90;3.50;;;10.80;99.90;;;;;;4966887;28;87408;-74
2023/12/10 05:49:08;;;;;;;25.67;4.65;;;10.80;99.90;;;;;;4955532;28;92027;-75
2023/12/10 05:51:33;;;;;;;25.55;4.10;;;10.80;99.90;;;;;;4948697;28;90496;-75
2023/12/10 05:53:59;;;;;;;29.08;4.13;;;10.80;99.90;;;;;;4949845;28;87676;-75
2023/12/10 05:56:25;;;;;;;31.70;3.95;;;10.80;99.90;;;;;;4966752;28;87551;-75
2023/12/10 05:58:50;;;;;;;23.15;4.20;;;10.80;99.90;;;;;;4950156;28;89903;-74
2023/12/10 06:01:16;;;;;;;25.25;4.55;;;10.80;99.90;;;;;;4968356;28;87686;-75
2023/12/10 06:03:42;;;;;;;23.15;3.13;;;10.80;99.90;;;;;;4949953;28;87272;-75
2023/12/10 06:06:07;;;;;;;34.45;5.20;;;10.80;99.90;;;;;;4950791;28;90751;-75
2023/12/10 06:08:33;;;;;;;34.75;3.60;;;10.80;99.90;;;;;;4967249;28;89040;-75
2023/12/10 06:10:59;;;;;;;33.53;5.72;;;10.80;99.90;;;;;;4967283;28;88767;-75
2023/12/10 06:13:27;;;;;;;25.30;3.63;;;10.80;99.90;;;;;;4949197;28;87600;-75
2023/12/10 06:15:54;;;;;;;30.48;4.22;;;10.80;99.90;;;;;;4967196;28;87811;-75
2023/12/10 06:18:20;;;;;;;23.65;3.65;;;10.80;99.90;;;;;;4967122;28;89154;-75
2023/12/10 06:20:46;;;;;;;24.80;3.20;;;10.90;99.90;;;;;;4948766;28;91427;-74
2023/12/10 06:23:12;;;;;;;29.05;5.43;;;10.90;99.90;;;;;;4948243;28;87445;-75
2023/12/10 06:25:37;;;;;;;28.15;3.70;;;10.90;99.90;;;;;;4949425;28;89559;-75
2023/12/10 06:28:03;;;;;;;25.10;3.88;;;10.90;99.90;;;;;;4949742;28;92210;-75
2023/12/10 06:30:29;;;;;;;35.20;3.10;;;10.80;99.90;;;;;;4949408;28;90778;-75
2023/12/10 06:32:55;;;;;;;26.60;4.10;;;10.90;99.90;;;;;;4968625;28;88188;-75
2023/12/10 06:35:21;;;;;;;25.65;3.75;;;10.90;99.90;;;;;;4949737;28;88784;-76
2023/12/10 06:37:47;;;;;;;25.17;4.30;;;10.90;99.90;;;;;;4966988;28;88610;-76
2023/12/10 06:40:13;;;;;;;35.72;4.32;;;10.80;99.90;;;;;;4949190;28;91385;-75
2023/12/10 06:42:38;;;;;;;26.17;3.70;;;10.80;99.90;;;;;;4949210;28;89092;-75
2023/12/10 06:45:05;;;;;;;31.08;4.25;;;10.80;99.90;;;;;;4949088;28;89119;-75
2023/12/10 06:47:31;;;;;;;31.98;5.63;;;10.80;99.90;;;;;;4968026;28;88377;-76
2023/12/10 06:49:56;;;;;;;29.92;4.72;;;10.60;99.90;;;;;;4949818;28;90380;-74
2023/12/10 06:52:22;;;;;;;31.70;3.58;;;10.40;99.90;;;;;;4949328;28;88342;-75
2023/12/10 06:54:47;;;;;;;31.65;5.63;;;10.20;99.90;;;;;;4951429;28;90410;-75
2023/12/10 06:57:13;;;;;;;26.92;3.63;;;10.00;99.90;;;;;;4952996;28;91818;-75
2023/12/10 06:59:39;;;;;;;28.75;4.18;;;9.90;99.90;;;;;;4952281;28;92245;-76
2023/12/10 07:02:05;;;;;;;22.95;3.72;;;9.80;99.90;;;;;;4951865;28;88057;-74
2023/12/10 07:04:30;;;;;;;27.83;5.53;;;9.80;99.90;;;;;;4951739;28;90787;-75
2023/12/10 07:06:56;;;;;;;26.05;3.28;;;9.70;99.90;;;;;;4969051;28;87863;-76
2023/12/10 07:09:23;;;;;;;30.88;3.70;;;9.70;99.90;;;;;;4952145;28;91078;-75
2023/12/10 07:11:49;;;;;;;33.08;4.53;;;9.60;99.90;;;;;;4951773;28;88702;-76
2023/12/10 07:14:15;;;;;;;29.02;3.63;;;9.60;99.90;;;;;;4951715;28;90603;-75
2023/12/10 07:16:40;;;;;;;29.38;4.07;;;9.60;99.90;;;;;;4951369;28;91596;-75
2023/12/10 07:19:06;;;;;;;32.25;4.22;;;9.50;99.90;;;;;;4951951;28;91292;-74
2023/12/10 07:21:32;;;;;;;22.85;2.78;;;9.50;99.90;;;;;;4950603;28;88992;-75
2023/12/10 07:23:57;;;;;;;23.10;3.40;;;9.50;99.90;;;;;;4952271;28;90323;-74
2023/12/10 07:26:24;;;;;;;32.85;4.55;;;9.40;99.90;;;;;;4969358;28;93438;-75
2023/12/10 07:28:53;;;;;;;22.42;3.35;;;9.40;99.90;;;;;;4951381;28;90946;-74
2023/12/10 07:31:19;;;;;;;32.17;3.72;;;9.40;99.90;;;;;;4968145;28;87185;-73
2023/12/10 07:33:45;;;;;;;27.08;3.55;;;9.40;99.90;;;;;;4951009;28;89950;-73
2023/12/10 07:36:11;;;;;;;29.58;3.75;;;9.40;99.90;;;;;;4970595;28;88138;-73
2023/12/10 07:38:37;;;;;;;33.60;4.40;;;9.40;99.90;;;;;;4970175;28;87617;-74
2023/12/10 07:41:04;;;;;;;28.23;3.88;;;9.40;99.90;;;;;;4969715;28;87882;-74
2023/12/10 07:43:33;;;;;;;30.15;4.10;;;9.30;99.90;;;;;;4951389;28;90304;-73
2023/12/10 07:45:58;;;;;;;26.15;4.10;;;9.40;99.90;;;;;;4950090;28;93277;-75
2023/12/10 07:48:24;;;;;;;29.42;4.45;;;9.30;99.90;;;;;;4968845;28;88822;-74
2023/12/10 07:50:50;;;;;;;26.70;4.00;;;9.30;99.90;;;;;;4970960;28;87579;-74
2023/12/10 07:53:16;;;;;;;29.10;3.75;;;9.30;99.90;;;;;;4951288;28;90544;-74
2023/12/10 07:55:42;;;;;;;31.80;4.15;;;9.30;99.90;;;;;;4950647;28;91288;-73
2023/12/10 07:58:08;;;;;;;22.85;3.75;;;9.30;99.90;;;;;;4967414;28;89052;-76
2023/12/10 08:00:34;;;;;;;36.33;4.70;;;9.30;99.90;;;;;;4950045;28;87669;-74
2023/12/10 08:03:00;;;;;;;29.38;5.40;;;9.30;99.90;;;;;;4952458;28;90407;-73
2023/12/10 08:05:25;;;;;;;29.58;3.85;;;9.30;99.90;;;;;;4949992;28;90131;-73
2023/12/10 08:07:51;;;;;;;26.88;3.50;;;9.40;99.90;;;;;;4950093;28;91415;-73
2023/12/10 08:10:19;;;;;;;34.58;3.67;;;9.40;99.90;;;;;;4950377;28;88656;-73
2023/12/10 08:12:45;;;;;;;31.67;4.38;;;9.40;99.90;;;;;;4951215;28;90894;-74
2023/12/10 08:15:11;;;;;;;40.60;4.85;;;9.40;99.90;;;;;;4951482;28;90559;-73
2023/12/10 08:17:36;;;;;;;33.45;3.42;;;9.40;99.90;;;;;;4952183;28;92016;-74
2023/12/10 08:20:04;;;;;;;27.73;3.05;;;9.40;99.90;;;;;;4950112;28;87924;-73
2023/12/10 08:22:33;;;;;;;27.73;4.22;;;9.40;99.90;;;;;;4939267;28;90055;-72
2023/12/10 08:25:08;;;;;;;36.13;4.63;;;9.50;99.90;;;;;;4962408;28;88188;-74
2023/12/10 08:27:34;;;;;;;35.75;4.03;;;9.40;99.90;;;;;;4943986;28;90403;-74
2023/12/10 08:30:02;;;;;;;33.70;4.20;;;9.40;99.90;;;;;;4962064;28;88374;-74
2023/12/10 08:32:29;;;;;;;33.80;4.18;;;9.40;99.90;;;;;;4962134;28;87788;-74
2023/12/10 08:34:54;;;;;;;34.72;4.47;;;9.40;99.90;;;;;;4962055;28;90416;-75
2023/12/10 08:37:20;;;;;;;34.65;5.93;;;9.40;99.90;;;;;;4944155;28;91905;-74
2023/12/10 08:39:48;;;;;;;23.55;4.18;;;9.30;99.90;;;;;;4961028;28;87785;-73
2023/12/10 08:42:14;;;;;;;39.20;4.65;;;9.30;99.90;;;;;;4967308;28;87759;-75
2023/12/10 08:44:39;;;;;;;36.80;3.53;;;9.30;99.90;;;;;;4967698;28;88609;-73
2023/12/10 08:47:05;;;;;;;36.63;5.22;;;9.20;99.90;;;;;;4968498;28;87936;-74
2023/12/10 08:49:31;;;;;;;37.70;4.40;;;9.20;99.90;;;;;;4968545;28;87777;-74
2023/12/10 08:51:56;;;;;;;38.13;4.53;;;9.20;99.90;;;;;;4967232;28;87007;-73
2023/12/10 08:54:22;;;;;;;29.73;4.93;;;9.20;99.90;;;;;;4967707;28;87904;-74
2023/12/10 08:56:48;;;;;;;34.60;4.60;;;9.20;99.90;;;;;;4949220;28;91134;-75
2023/12/10 08:59:13;;;;;;;35.70;4.38;;;9.30;99.90;;;;;;4967467;28;88615;-75
2023/12/10 09:01:39;;;;;;;36.00;6.30;;;9.30;99.90;;;;;;4947791;28;90690;-73
2023/12/10 09:04:05;;;;;;;31.73;4.53;;;9.30;99.90;;;;;;4950314;28;92006;-73
2023/12/10 09:06:31;;;;;;;21.92;3.92;;;9.40;99.90;;;;;;4967407;28;88212;-75
2023/12/10 09:08:57;;;;;;;39.67;4.95;;;9.40;99.90;;;;;;4952566;28;87212;-74
2023/12/10 09:11:23;;;;;;;36.83;6.28;;;9.50;99.90;;;;;;4967705;28;87622;-73
2023/12/10 09:13:48;;;;;;;32.50;4.63;;;9.60;99.90;;;;;;4949998;28;91583;-74
2023/12/10 09:16:18;;;;;;;33.00;4.25;;;9.60;99.90;;;;;;4967855;28;87572;-74
2023/12/10 09:18:44;;;;;;;37.80;4.68;;;9.60;99.90;;;;;;4949604;28;88046;-74
2023/12/10 09:21:10;;;;;;;29.95;4.97;;;9.60;99.90;;;;;;4950602;28;90187;-74
2023/12/10 09:23:35;;;;;;;32.67;5.60;;;9.60;99.90;;;;;;4964948;28;89284;-74
2023/12/10 09:26:01;;;;;;;38.47;5.60;;;9.70;99.90;;;;;;4948879;28;91966;-74
2023/12/10 09:28:28;;;;;;;31.95;7.25;;;9.70;99.90;;;;;;4948444;28;87991;-74
2023/12/10 09:30:54;;;;;;;35.65;5.00;;;9.80;99.90;;;;;;4949796;28;88667;-74
2023/12/10 09:33:19;;;;;;;36.25;4.93;;;9.80;99.90;;;;;;4950702;28;91765;-73
2023/12/10 09:35:45;;;;;;;48.60;5.15;;;9.90;99.90;;;;;;4950675;28;90849;-73
2023/12/10 09:38:11;;;;;;;45.05;5.10;;;9.90;99.90;;;;;;4950322;28;87778;-73
2023/12/10 09:40:38;;;;;;;32.30;4.45;;;10.00;99.90;;;;;;4969461;28;87348;-74
2023/12/10 09:43:04;;;;;;;23.90;4.32;;;10.00;99.90;;;;;;4953162;28;92161;-74
2023/12/10 09:45:29;;;;;;;38.38;5.95;;;10.10;99.90;;;;;;4954666;28;91559;-74
2023/12/10 09:47:55;;;;;;;35.70;4.95;;;10.10;99.90;;;;;;4953650;28;88527;-74
2023/12/10 09:50:23;;;;;;;39.65;5.32;;;10.20;99.90;;;;;;4953871;28;89829;-74
2023/12/10 09:52:49;;;;;;;36.30;5.57;;;10.30;99.90;;;;;;4952984;28;92403;-74
2023/12/10 09:55:16;;;;;;;36.30;4.68;;;10.30;99.90;;;;;;4952007;28;91117;-73
2023/12/10 09:57:42;;;;;;;44.17;5.75;;;10.40;99.90;;;;;;4951722;28;87474;-73
2023/12/10 10:00:09;;;;;;;41.42;5.82;;;10.40;99.90;;;;;;4970406;28;88041;-73
2023/12/10 10:02:36;;;;;;;29.08;5.88;;;10.60;99.90;;;;;;4951662;28;92568;-73
2023/12/10 10:05:03;;;;;;;46.38;5.10;;;10.60;99.90;;;;;;4968924;28;87682;-73
2023/12/10 10:07:29;;;;;;;46.83;5.70;;;10.70;99.90;;;;;;4950306;28;87607;-74
2023/12/10 10:09:55;;;;;;;35.65;5.43;;;10.70;99.90;;;;;;4951046;28;90371;-74
2023/12/10 10:12:21;;;;;;;36.33;5.40;;;10.80;99.90;;;;;;4950573;28;92729;-74
2023/12/10 10:14:57;;;;;;;35.03;5.35;;;10.80;99.90;;;;;;4950744;28;92659;-73
2023/12/10 10:17:32;;;;;;;36.70;5.75;;;10.80;99.90;;;;;;4967855;28;88318;-73
2023/12/10 10:19:58;;;;;;;38.97;6.05;;;10.80;99.90;;;;;;4967848;28;87988;-74
2023/12/10 10:22:25;;;;;;;36.78;5.07;;;10.90;99.90;;;;;;4950211;28;91332;-73
2023/12/10 10:24:52;;;;;;;34.83;4.88;;;10.90;99.90;;;;;;4949923;28;90509;-74
2023/12/10 10:27:18;;;;;;;40.35;5.63;;;10.90;99.90;;;;;;4969594;28;87174;-74
2023/12/10 10:29:44;;;;;;;34.17;5.32;;;10.90;99.90;;;;;;4953354;28;90615;-74
2023/12/10 10:32:15;;;;;;;39.35;5.60;;;10.90;99.90;;;;;;4953331;28;91234;-74
2023/12/10 10:34:44;;;;;;;38.28;6.80;;;10.90;99.90;;;;;;4953141;28;91873;-76
2023/12/10 10:37:10;;;;;;;27.55;4.65;;;10.90;99.90;;;;;;4952364;28;88459;-74
2023/12/10 10:39:36;;;;;;;48.60;5.35;;;11.00;99.90;;;;;;4953254;28;90403;-73
2023/12/10 10:42:08;;;;;;;40.45;5.45;;;11.00;99.90;;;;;;4953152;28;91849;-74
2023/12/10 10:44:41;;;;;;;37.15;5.03;;;11.10;99.90;;;;;;4970797;28;87609;-74
2023/12/10 10:47:07;;;;;;;38.47;6.80;;;11.10;99.90;;;;;;4952921;28;87710;-74
2023/12/10 10:50:01;;;;;;;46.88;5.50;;;11.20;99.90;;;;;;4952900;28;89377;-73
2023/12/10 10:52:29;;;;;;;35.88;5.22;;;11.30;99.90;;;;;;4948329;28;91464;-73
2023/12/10 10:54:56;;;;;;;40.15;5.43;;;11.30;99.90;;;;;;4953060;28;91482;-74
2023/12/10 10:57:36;;;;;;;35.42;4.90;;;11.40;99.90;;;;;;4953326;28;87052;-73
2023/12/10 11:00:17;;;;;;;42.38;5.22;;;11.30;99.90;;;;;;4956278;28;93601;-73
2023/12/10 11:02:56;;;;;;;43.83;4.95;;;11.30;99.90;;;;;;4949812;28;92721;-75
2023/12/10 11:05:35;;;;;;;35.38;4.82;;;11.30;99.90;;;;;;4950102;28;92986;-74
2023/12/10 11:08:04;;;;;;;49.00;6.25;;;11.20;99.90;;;;;;4968531;28;87574;-74
2023/12/10 11:10:29;;;;;;;43.50;5.82;;;11.20;99.90;;;;;;4951128;28;90537;-74
2023/12/10 11:12:57;;;;;;;40.45;5.22;;;11.20;99.90;;;;;;4968880;28;87762;-74
2023/12/10 11:15:30;;;;;;;39.17;5.88;;;11.20;99.90;;;;;;4953587;28;90669;-74
2023/12/10 11:17:59;;;;;;;35.42;4.60;;;11.20;99.90;;;;;;4970529;28;87552;-74
2023/12/10 11:20:39;;;;;;;34.75;4.95;;;11.20;99.90;;;;;;4952194;28;90295;-74
2023/12/10 11:23:09;;;;;;;30.92;4.43;;;11.20;99.90;;;;;;4951980;28;91052;-74
2023/12/10 11:25:36;;;;;;;37.15;4.68;;;11.30;99.90;;;;;;4951939;28;89905;-73
2023/12/10 11:28:10;;;;;;;29.55;4.30;;;11.20;99.90;;;;;;4950540;28;89211;-73
2023/12/10 11:30:36;;;;;;;36.75;5.63;;;11.20;99.90;;;;;;4951170;28;90183;-73
2023/12/10 11:33:02;;;;;;;45.90;5.80;;;11.20;99.90;;;;;;4970082;28;88753;-74
2023/12/10 11:35:28;;;;;;;37.47;5.43;;;11.20;99.90;;;;;;4950823;28;91019;-74
2023/12/10 11:37:53;;;;;;;40.50;6.57;;;11.20;99.90;;;;;;4950564;28;87594;-73
2023/12/10 11:40:19;;;;;;;31.88;4.45;;;11.20;99.90;;;;;;4968500;28;87474;-76
2023/12/10 11:42:45;;;;;;;34.08;4.78;;;11.20;99.90;;;;;;4950424;28;92461;-74
2023/12/10 11:45:13;;;;;;;35.90;5.18;;;11.30;99.90;;;;;;4952008;28;90414;-73
2023/12/10 11:47:45;;;;;;;37.50;6.90;;;11.30;99.90;;;;;;4969840;28;88086;-74
2023/12/10 11:50:12;;;;;;;29.58;4.32;;;11.40;99.90;;;;;;4970233;28;87265;-73
2023/12/10 11:52:39;;;;;;;37.22;4.90;;;11.50;99.90;;;;;;4950692;28;92301;-73
2023/12/10 11:55:07;;;;;;;32.70;4.80;;;11.50;99.90;;;;;;4957862;28;92216;-74
2023/12/10 11:57:33;;;;;;;28.83;4.65;;;11.70;99.90;;;;;;4951692;28;87546;-73
2023/12/10 12:00:01;;;;;;;43.45;4.72;;;11.70;99.90;;;;;;4970043;28;87451;-75
2023/12/10 12:02:28;;;;;;;29.25;3.47;;;11.80;99.90;;;;;;4966018;28;92043;-74
2023/12/10 12:04:54;;;;;;;39.40;6.47;;;11.90;99.90;;;;;;4968364;28;87549;-75
2023/12/10 12:07:24;;;;;;;33.53;4.45;;;12.00;99.90;;;;;;4951269;28;88443;-75
2023/12/10 12:09:51;;;;;;;35.92;4.65;;;12.20;99.90;;;;;;4951869;28;90558;-75
2023/12/10 12:12:22;;;;;;;40.03;4.47;;;12.30;99.90;;;;;;4952663;28;91898;-73
2023/12/10 12:14:51;;;;;;;26.88;4.00;;;12.40;99.90;;;;;;4967362;28;91459;-74
2023/12/10 12:17:18;;;;;;;26.95;4.15;;;12.40;99.90;;;;;;4951527;28;88803;-75
2023/12/10 12:19:44;;;;;;;29.13;4.80;;;12.40;99.90;;;;;;4951287;28;90091;-74
2023/12/10 12:22:10;;;;;;;29.13;5.00;;;12.40;99.90;;;;;;4967005;28;87693;-74
2023/12/10 12:24:39;;;;;;;32.17;4.30;;;12.30;99.90;;;;;;4967232;28;88585;-74
2023/12/10 12:27:11;;;;;;;28.50;4.22;;;12.30;99.90;;;;;;4964587;28;87790;-76
2023/12/10 12:29:37;;;;;;;26.48;4.53;;;12.30;99.90;;;;;;4949253;28;90306;-74
2023/12/10 12:32:04;;;;;;;36.17;4.47;;;12.20;99.90;;;;;;4969007;28;88691;-74
2023/12/10 12:34:30;;;;;;;35.40;3.13;;;12.20;99.90;;;;;;4950568;28;91565;-74